sensor_id;sensor_type;location;lat;lon;timestamp;temperature;humidity
25933;DHT22;13731;51.166;4.474;2023-06-24T00:01:16;18.20;1.00
25933;DHT22;13731;51.166;4.474;2023-06-24T00:03:41;18.10;99.90
25933;DHT22;13731;51.166;4.474;2023-06-24T00:06:14;18.00;1.00
25933;DHT22;13731;51.166;4.474;2023-06-24T00:08:44;17.90;1.00
25933;DHT22;13731;51.166;4.474;2023-06-24T00:11:10;17.90;99.90
25933;DHT22;13731;51.166;4.474;2023-06-24T00:13:36;17.90;99.90
25933;DHT22;13731;51.166;4.474;2023-06-24T00:16:02;17.90;1.00
25933;DHT22;13731;51.166;4.474;2023-06-24T00:18:28;17.90;99.90
25933;DHT22;13731;51.166;4.474;2023-06-24T00:20:55;17.90;1.00
25933;DHT22;13731;51.166;4.474;2023-06-24T00:23:22;17.80;13.20
25933;DHT22;13731;51.166;4.474;2023-06-24T00:25:51;17.80;41.20
25933;DHT22;13731;51.166;4.474;2023-06-24T00:28:17;17.70;1.00
25933;DHT22;13731;51.166;4.474;2023-06-24T00:30:43;17.70;1.00
25933;DHT22;13731;51.166;4.474;2023-06-24T00:33:09;17.70;1.00
25933;DHT22;13731;51.166;4.474;2023-06-24T00:35:37;17.70;99.90
25933;DHT22;13731;51.166;4.474;2023-06-24T00:38:07;17.70;99.90
25933;DHT22;13731;51.166;4.474;2023-06-24T00:40:33;17.60;99.90
25933;DHT22;13731;51.166;4.474;2023-06-24T00:42:59;17.60;99.90
25933;DHT22;13731;51.166;4.474;2023-06-24T00:45:29;17.40;1.00
25933;DHT22;13731;51.166;4.474;2023-06-24T00:47:58;17.50;1.00
25933;DHT22;13731;51.166;4.474;2023-06-24T00:50:25;17.50;1.00
25933;DHT22;13731;51.166;4.474;2023-06-24T00:52:52;17.40;1.00
25933;DHT22;13731;51.166;4.474;2023-06-24T00:55:18;17.40;99.90
25933;DHT22;13731;51.166;4.474;2023-06-24T00:57:47;17.40;1.00
25933;DHT22;13731;51.166;4.474;2023-06-24T01:00:17;17.40;1.00
25933;DHT22;13731;51.166;4.474;2023-06-24T01:02:44;17.30;1.00
25933;DHT22;13731;51.166;4.474;2023-06-24T01:05:10;17.30;99.90
25933;DHT22;13731;51.166;4.474;2023-06-24T01:07:39;17.20;1.00
25933;DHT22;13731;51.166;4.474;2023-06-24T01:10:06;17.20;99.90
25933;DHT22;13731;51.166;4.474;2023-06-24T01:12:35;17.10;99.90
25933;DHT22;13731;51.166;4.474;2023-06-24T01:15:02;17.10;99.90
25933;DHT22;13731;51.166;4.474;2023-06-24T01:17:34;17.00;99.90
25933;DHT22;13731;51.166;4.474;2023-06-24T01:25:34;17.00;55.40
25933;DHT22;13731;51.166;4.474;2023-06-24T01:33:07;16.80;1.00
25933;DHT22;13731;51.166;4.474;2023-06-24T01:35:34;16.70;99.90
25933;DHT22;13731;51.166;4.474;2023-06-24T01:38:10;16.70;99.90
25933;DHT22;13731;51.166;4.474;2023-06-24T01:40:38;16.70;99.90
25933;DHT22;13731;51.166;4.474;2023-06-24T01:43:08;16.80;99.90
25933;DHT22;13731;51.166;4.474;2023-06-24T01:45:44;16.80;1.00
25933;DHT22;13731;51.166;4.474;2023-06-24T01:48:29;16.90;1.00
25933;DHT22;13731;51.166;4.474;2023-06-24T01:51:08;16.90;99.90
25933;DHT22;13731;51.166;4.474;2023-06-24T01:53:36;16.90;1.00
25933;DHT22;13731;51.166;4.474;2023-06-24T01:56:04;16.90;1.00
25933;DHT22;13731;51.166;4.474;2023-06-24T01:58:31;16.90;99.90
25933;DHT22;13731;51.166;4.474;2023-06-24T02:00:58;16.90;99.90
25933;DHT22;13731;51.166;4.474;2023-06-24T02:03:24;16.80;99.90
25933;DHT22;13731;51.166;4.474;2023-06-24T02:05:51;16.80;99.90
25933;DHT22;13731;51.166;4.474;2023-06-24T02:08:18;16.80;99.90
25933;DHT22;13731;51.166;4.474;2023-06-24T02:10:44;16.70;99.90
25933;DHT22;13731;51.166;4.474;2023-06-24T02:13:12;16.70;99.90
25933;DHT22;13731;51.166;4.474;2023-06-24T02:15:38;16.60;1.00
25933;DHT22;13731;51.166;4.474;2023-06-24T02:18:05;16.60;1.00
25933;DHT22;13731;51.166;4.474;2023-06-24T02:20:31;16.60;1.00
25933;DHT22;13731;51.166;4.474;2023-06-24T02:22:58;16.60;1.00
25933;DHT22;13731;51.166;4.474;2023-06-24T02:25:24;16.60;99.90
25933;DHT22;13731;51.166;4.474;2023-06-24T02:27:51;16.60;99.90
25933;DHT22;13731;51.166;4.474;2023-06-24T02:30:17;16.60;1.00
25933;DHT22;13731;51.166;4.474;2023-06-24T02:32:44;16.50;1.00
25933;DHT22;13731;51.166;4.474;2023-06-24T02:35:10;16.50;1.00
25933;DHT22;13731;51.166;4.474;2023-06-24T02:37:36;16.60;1.00
25933;DHT22;13731;51.166;4.474;2023-06-24T02:40:01;16.70;26.80
25933;DHT22;13731;51.166;4.474;2023-06-24T02:42:28;16.70;1.00
25933;DHT22;13731;51.166;4.474;2023-06-24T02:44:54;16.70;99.90
25933;DHT22;13731;51.166;4.474;2023-06-24T02:47:19;16.70;1.00
25933;DHT22;13731;51.166;4.474;2023-06-24T02:49:47;16.70;1.00
25933;DHT22;13731;51.166;4.474;2023-06-24T02:52:13;16.70;99.90
25933;DHT22;13731;51.166;4.474;2023-06-24T02:54:40;16.60;1.00
25933;DHT22;13731;51.166;4.474;2023-06-24T02:57:24;16.50;23.40
25933;DHT22;13731;51.166;4.474;2023-06-24T03:00:26;16.50;99.90
25933;DHT22;13731;51.166;4.474;2023-06-24T03:03:07;16.50;89.00
25933;DHT22;13731;51.166;4.474;2023-06-24T03:05:36;16.50;99.90
25933;DHT22;13731;51.166;4.474;2023-06-24T03:08:03;16.50;99.90
25933;DHT22;13731;51.166;4.474;2023-06-24T03:10:33;16.50;1.00
25933;DHT22;13731;51.166;4.474;2023-06-24T03:13:01;16.40;99.90
25933;DHT22;13731;51.166;4.474;2023-06-24T03:15:39;16.50;99.90
25933;DHT22;13731;51.166;4.474;2023-06-24T03:18:05;16.40;1.00
25933;DHT22;13731;51.166;4.474;2023-06-24T03:20:31;16.30;99.90
25933;DHT22;13731;51.166;4.474;2023-06-24T03:23:06;16.20;99.90
25933;DHT22;13731;51.166;4.474;2023-06-24T03:25:33;16.20;99.90
25933;DHT22;13731;51.166;4.474;2023-06-24T03:27:59;16.20;99.90
25933;DHT22;13731;51.166;4.474;2023-06-24T03:30:32;16.10;1.00
25933;DHT22;13731;51.166;4.474;2023-06-24T03:32:59;16.20;99.90
25933;DHT22;13731;51.166;4.474;2023-06-24T03:35:24;16.20;99.90
25933;DHT22;13731;51.166;4.474;2023-06-24T03:37:54;16.20;99.90
25933;DHT22;13731;51.166;4.474;2023-06-24T03:40:20;16.20;37.10
25933;DHT22;13731;51.166;4.474;2023-06-24T03:42:45;16.20;46.00
25933;DHT22;13731;51.166;4.474;2023-06-24T03:45:11;16.20;1.00
25933;DHT22;13731;51.166;4.474;2023-06-24T03:47:37;16.20;1.00
25933;DHT22;13731;51.166;4.474;2023-06-24T03:50:04;16.10;99.90
25933;DHT22;13731;51.166;4.474;2023-06-24T03:52:30;16.10;99.90
25933;DHT22;13731;51.166;4.474;2023-06-24T03:54:56;16.10;23.90
25933;DHT22;13731;51.166;4.474;2023-06-24T03:57:21;16.20;99.90
25933;DHT22;13731;51.166;4.474;2023-06-24T03:59:48;16.10;1.00
25933;DHT22;13731;51.166;4.474;2023-06-24T04:02:13;16.10;99.90
25933;DHT22;13731;51.166;4.474;2023-06-24T04:04:39;16.10;73.80
25933;DHT22;13731;51.166;4.474;2023-06-24T04:07:05;16.10;1.00
25933;DHT22;13731;51.166;4.474;2023-06-24T04:09:34;16.20;1.00
25933;DHT22;13731;51.166;4.474;2023-06-24T04:12:00;16.20;99.90
25933;DHT22;13731;51.166;4.474;2023-06-24T04:14:32;16.10;99.90
25933;DHT22;13731;51.166;4.474;2023-06-24T04:16:58;16.20;99.90
25933;DHT22;13731;51.166;4.474;2023-06-24T04:19:24;16.10;99.90
25933;DHT22;13731;51.166;4.474;2023-06-24T04:21:50;16.20;99.90
25933;DHT22;13731;51.166;4.474;2023-06-24T04:24:16;16.20;99.90
25933;DHT22;13731;51.166;4.474;2023-06-24T04:26:41;16.20;16.80
25933;DHT22;13731;51.166;4.474;2023-06-24T04:29:07;16.30;1.00
25933;DHT22;13731;51.166;4.474;2023-06-24T04:31:33;16.30;99.90
25933;DHT22;13731;51.166;4.474;2023-06-24T04:33:59;16.40;99.90
25933;DHT22;13731;51.166;4.474;2023-06-24T04:36:24;16.40;1.00
25933;DHT22;13731;51.166;4.474;2023-06-24T04:38:50;16.50;99.90
25933;DHT22;13731;51.166;4.474;2023-06-24T04:41:16;16.60;1.00
25933;DHT22;13731;51.166;4.474;2023-06-24T04:43:43;16.60;1.00
25933;DHT22;13731;51.166;4.474;2023-06-24T04:46:10;16.70;1.00
25933;DHT22;13731;51.166;4.474;2023-06-24T04:48:35;16.80;99.90
25933;DHT22;13731;51.166;4.474;2023-06-24T04:51:01;17.00;99.90
25933;DHT22;13731;51.166;4.474;2023-06-24T04:53:27;17.10;1.00
25933;DHT22;13731;51.166;4.474;2023-06-24T04:55:52;17.10;1.00
25933;DHT22;13731;51.166;4.474;2023-06-24T04:58:18;17.10;1.00
25933;DHT22;13731;51.166;4.474;2023-06-24T05:00:44;17.20;99.90
25933;DHT22;13731;51.166;4.474;2023-06-24T05:03:09;17.30;99.90
25933;DHT22;13731;51.166;4.474;2023-06-24T05:05:35;17.30;99.90
25933;DHT22;13731;51.166;4.474;2023-06-24T05:08:01;17.40;1.00
25933;DHT22;13731;51.166;4.474;2023-06-24T05:10:26;17.50;1.00
25933;DHT22;13731;51.166;4.474;2023-06-24T05:12:52;17.40;1.00
25933;DHT22;13731;51.166;4.474;2023-06-24T05:15:18;17.40;1.00
25933;DHT22;13731;51.166;4.474;2023-06-24T05:17:44;17.40;1.00
25933;DHT22;13731;51.166;4.474;2023-06-24T05:20:09;17.40;1.00
25933;DHT22;13731;51.166;4.474;2023-06-24T05:22:35;17.40;1.00
25933;DHT22;13731;51.166;4.474;2023-06-24T05:25:02;17.50;1.00
25933;DHT22;13731;51.166;4.474;2023-06-24T05:27:28;17.60;1.00
25933;DHT22;13731;51.166;4.474;2023-06-24T05:29:53;17.80;99.90
25933;DHT22;13731;51.166;4.474;2023-06-24T05:32:19;17.80;99.90
25933;DHT22;13731;51.166;4.474;2023-06-24T05:34:46;17.80;99.90
25933;DHT22;13731;51.166;4.474;2023-06-24T05:37:11;17.90;99.90
25933;DHT22;13731;51.166;4.474;2023-06-24T05:39:37;18.00;22.20
25933;DHT22;13731;51.166;4.474;2023-06-24T05:42:03;18.00;72.60
25933;DHT22;13731;51.166;4.474;2023-06-24T05:44:29;18.20;1.00
25933;DHT22;13731;51.166;4.474;2023-06-24T05:46:54;18.30;1.00
25933;DHT22;13731;51.166;4.474;2023-06-24T05:49:20;18.20;1.00
25933;DHT22;13731;51.166;4.474;2023-06-24T05:51:46;18.20;1.00
25933;DHT22;13731;51.166;4.474;2023-06-24T05:54:11;18.40;1.00
25933;DHT22;13731;51.166;4.474;2023-06-24T05:56:37;18.40;1.00
25933;DHT22;13731;51.166;4.474;2023-06-24T05:59:03;18.50;1.00
25933;DHT22;13731;51.166;4.474;2023-06-24T06:01:28;18.50;1.00
25933;DHT22;13731;51.166;4.474;2023-06-24T06:03:54;18.60;99.90
25933;DHT22;13731;51.166;4.474;2023-06-24T06:06:20;18.40;1.00
25933;DHT22;13731;51.166;4.474;2023-06-24T06:08:46;18.50;1.00
25933;DHT22;13731;51.166;4.474;2023-06-24T06:11:12;18.60;1.00
25933;DHT22;13731;51.166;4.474;2023-06-24T06:13:38;18.60;1.00
25933;DHT22;13731;51.166;4.474;2023-06-24T06:16:04;18.70;1.00
25933;DHT22;13731;51.166;4.474;2023-06-24T06:18:29;18.60;1.00
25933;DHT22;13731;51.166;4.474;2023-06-24T06:20:55;18.90;1.00
25933;DHT22;13731;51.166;4.474;2023-06-24T06:23:21;18.90;1.00
25933;DHT22;13731;51.166;4.474;2023-06-24T06:25:46;19.00;99.90
25933;DHT22;13731;51.166;4.474;2023-06-24T06:28:12;19.10;1.00
25933;DHT22;13731;51.166;4.474;2023-06-24T06:30:38;19.10;1.00
25933;DHT22;13731;51.166;4.474;2023-06-24T06:33:04;19.20;99.90
25933;DHT22;13731;51.166;4.474;2023-06-24T06:35:30;19.20;99.90
25933;DHT22;13731;51.166;4.474;2023-06-24T06:37:57;19.20;1.00
25933;DHT22;13731;51.166;4.474;2023-06-24T06:40:22;19.20;1.00
25933;DHT22;13731;51.166;4.474;2023-06-24T06:42:48;19.30;1.00
25933;DHT22;13731;51.166;4.474;2023-06-24T06:45:14;19.20;1.00
25933;DHT22;13731;51.166;4.474;2023-06-24T06:47:40;19.30;1.00
25933;DHT22;13731;51.166;4.474;2023-06-24T06:50:06;19.70;99.90
25933;DHT22;13731;51.166;4.474;2023-06-24T06:52:33;19.60;99.90
25933;DHT22;13731;51.166;4.474;2023-06-24T06:54:59;19.60;1.00
25933;DHT22;13731;51.166;4.474;2023-06-24T06:57:24;19.60;99.90
25933;DHT22;13731;51.166;4.474;2023-06-24T06:59:50;19.60;99.90
25933;DHT22;13731;51.166;4.474;2023-06-24T07:02:16;19.60;1.00
25933;DHT22;13731;51.166;4.474;2023-06-24T07:04:42;19.70;99.90
25933;DHT22;13731;51.166;4.474;2023-06-24T07:07:08;19.80;99.90
25933;DHT22;13731;51.166;4.474;2023-06-24T07:09:34;19.90;99.90
25933;DHT22;13731;51.166;4.474;2023-06-24T07:12:00;20.10;99.90
25933;DHT22;13731;51.166;4.474;2023-06-24T07:14:26;20.20;99.90
25933;DHT22;13731;51.166;4.474;2023-06-24T07:16:52;20.20;99.90
25933;DHT22;13731;51.166;4.474;2023-06-24T07:19:17;20.20;99.90
25933;DHT22;13731;51.166;4.474;2023-06-24T07:21:43;20.30;99.90
25933;DHT22;13731;51.166;4.474;2023-06-24T07:24:09;20.60;67.70
25933;DHT22;13731;51.166;4.474;2023-06-24T07:26:35;20.70;1.00
25933;DHT22;13731;51.166;4.474;2023-06-24T07:29:01;20.70;1.00
25933;DHT22;13731;51.166;4.474;2023-06-24T07:31:27;20.80;1.00
25933;DHT22;13731;51.166;4.474;2023-06-24T07:33:52;20.80;1.00
25933;DHT22;13731;51.166;4.474;2023-06-24T07:36:18;20.50;54.10
25933;DHT22;13731;51.166;4.474;2023-06-24T07:38:44;20.60;1.00
25933;DHT22;13731;51.166;4.474;2023-06-24T07:41:10;20.60;1.00
25933;DHT22;13731;51.166;4.474;2023-06-24T07:43:36;20.80;1.00
25933;DHT22;13731;51.166;4.474;2023-06-24T07:46:01;20.90;1.00
25933;DHT22;13731;51.166;4.474;2023-06-24T07:48:27;21.00;1.00
25933;DHT22;13731;51.166;4.474;2023-06-24T07:50:53;21.10;1.00
25933;DHT22;13731;51.166;4.474;2023-06-24T07:53:19;21.20;1.00
25933;DHT22;13731;51.166;4.474;2023-06-24T07:55:45;21.10;1.00
25933;DHT22;13731;51.166;4.474;2023-06-24T07:58:10;21.40;1.00
25933;DHT22;13731;51.166;4.474;2023-06-24T08:00:36;21.20;1.00
25933;DHT22;13731;51.166;4.474;2023-06-24T08:03:03;21.20;1.00
25933;DHT22;13731;51.166;4.474;2023-06-24T08:05:29;21.10;1.00
25933;DHT22;13731;51.166;4.474;2023-06-24T08:07:54;21.30;1.00
25933;DHT22;13731;51.166;4.474;2023-06-24T08:10:20;21.40;1.00
25933;DHT22;13731;51.166;4.474;2023-06-24T08:12:46;21.50;1.00
25933;DHT22;13731;51.166;4.474;2023-06-24T08:15:11;21.60;1.00
25933;DHT22;13731;51.166;4.474;2023-06-24T08:17:37;21.70;1.00
25933;DHT22;13731;51.166;4.474;2023-06-24T08:20:03;21.80;99.90
25933;DHT22;13731;51.166;4.474;2023-06-24T08:22:29;21.80;99.90
25933;DHT22;13731;51.166;4.474;2023-06-24T08:24:55;22.20;99.90
25933;DHT22;13731;51.166;4.474;2023-06-24T08:27:23;22.20;99.90
25933;DHT22;13731;51.166;4.474;2023-06-24T08:29:49;22.00;99.90
25933;DHT22;13731;51.166;4.474;2023-06-24T08:32:15;22.00;99.90
25933;DHT22;13731;51.166;4.474;2023-06-24T08:34:40;22.30;99.90
25933;DHT22;13731;51.166;4.474;2023-06-24T08:37:06;22.40;99.90
25933;DHT22;13731;51.166;4.474;2023-06-24T08:39:32;22.50;99.90
25933;DHT22;13731;51.166;4.474;2023-06-24T08:41:57;22.50;99.90
25933;DHT22;13731;51.166;4.474;2023-06-24T08:44:23;22.80;99.90
25933;DHT22;13731;51.166;4.474;2023-06-24T08:46:49;22.70;99.90
25933;DHT22;13731;51.166;4.474;2023-06-24T08:51:51;22.50;99.90
25933;DHT22;13731;51.166;4.474;2023-06-24T08:54:17;22.60;99.90
25933;DHT22;13731;51.166;4.474;2023-06-24T08:56:45;22.80;99.90
25933;DHT22;13731;51.166;4.474;2023-06-24T08:59:11;22.90;99.90
25933;DHT22;13731;51.166;4.474;2023-06-24T09:01:36;22.80;99.90
25933;DHT22;13731;51.166;4.474;2023-06-24T09:04:02;23.00;99.90
25933;DHT22;13731;51.166;4.474;2023-06-24T09:06:30;23.20;99.90
25933;DHT22;13731;51.166;4.474;2023-06-24T09:08:56;23.40;99.90
25933;DHT22;13731;51.166;4.474;2023-06-24T09:11:25;23.40;99.90
25933;DHT22;13731;51.166;4.474;2023-06-24T09:13:59;23.50;99.90
25933;DHT22;13731;51.166;4.474;2023-06-24T09:16:25;23.60;99.90
25933;DHT22;13731;51.166;4.474;2023-06-24T09:18:52;23.40;99.90
25933;DHT22;13731;51.166;4.474;2023-06-24T09:21:27;23.30;99.90
25933;DHT22;13731;51.166;4.474;2023-06-24T09:23:56;23.40;99.90
25933;DHT22;13731;51.166;4.474;2023-06-24T09:26:26;23.50;99.90
25933;DHT22;13731;51.166;4.474;2023-06-24T09:28:52;23.60;99.90
25933;DHT22;13731;51.166;4.474;2023-06-24T09:31:18;23.80;99.90
25933;DHT22;13731;51.166;4.474;2023-06-24T09:33:44;23.80;99.90
25933;DHT22;13731;51.166;4.474;2023-06-24T09:36:13;23.80;99.90
25933;DHT22;13731;51.166;4.474;2023-06-24T09:38:40;23.80;96.70
25933;DHT22;13731;51.166;4.474;2023-06-24T09:41:06;24.10;79.90
25933;DHT22;13731;51.166;4.474;2023-06-24T09:43:35;24.10;55.00
25933;DHT22;13731;51.166;4.474;2023-06-24T09:46:02;24.50;42.90
25933;DHT22;13731;51.166;4.474;2023-06-24T09:48:28;24.40;41.20
25933;DHT22;13731;51.166;4.474;2023-06-24T09:50:55;24.40;23.70
25933;DHT22;13731;51.166;4.474;2023-06-24T09:53:23;24.40;13.30
25933;DHT22;13731;51.166;4.474;2023-06-24T09:55:49;24.50;13.20
25933;DHT22;13731;51.166;4.474;2023-06-24T09:58:16;24.70;10.00
25933;DHT22;13731;51.166;4.474;2023-06-24T10:00:43;24.70;1.20
25933;DHT22;13731;51.166;4.474;2023-06-24T10:03:09;24.70;2.00
25933;DHT22;13731;51.166;4.474;2023-06-24T10:05:36;24.80;1.20
25933;DHT22;13731;51.166;4.474;2023-06-24T10:08:02;24.90;1.00
25933;DHT22;13731;51.166;4.474;2023-06-24T10:10:30;24.80;1.00
25933;DHT22;13731;51.166;4.474;2023-06-24T10:12:55;25.50;1.00
25933;DHT22;13731;51.166;4.474;2023-06-24T10:15:21;27.10;1.00
25933;DHT22;13731;51.166;4.474;2023-06-24T10:17:47;28.80;1.00
25933;DHT22;13731;51.166;4.474;2023-06-24T10:20:13;29.70;1.00
25933;DHT22;13731;51.166;4.474;2023-06-24T10:22:48;30.70;1.00
25933;DHT22;13731;51.166;4.474;2023-06-24T10:25:16;30.30;1.00
25933;DHT22;13731;51.166;4.474;2023-06-24T10:27:42;30.90;1.00
25933;DHT22;13731;51.166;4.474;2023-06-24T10:30:08;31.00;1.00
25933;DHT22;13731;51.166;4.474;2023-06-24T10:32:40;32.40;1.00
25933;DHT22;13731;51.166;4.474;2023-06-24T10:35:25;31.70;1.00
25933;DHT22;13731;51.166;4.474;2023-06-24T10:37:55;32.80;1.00
25933;DHT22;13731;51.166;4.474;2023-06-24T10:40:34;31.80;1.00
25933;DHT22;13731;51.166;4.474;2023-06-24T10:43:00;31.80;1.00
25933;DHT22;13731;51.166;4.474;2023-06-24T10:45:26;32.70;1.00
25933;DHT22;13731;51.166;4.474;2023-06-24T10:47:51;32.90;1.00
25933;DHT22;13731;51.166;4.474;2023-06-24T10:50:26;32.90;1.00
25933;DHT22;13731;51.166;4.474;2023-06-24T10:52:53;33.40;1.00
25933;DHT22;13731;51.166;4.474;2023-06-24T10:55:23;34.10;1.00
25933;DHT22;13731;51.166;4.474;2023-06-24T10:57:50;33.90;1.00
25933;DHT22;13731;51.166;4.474;2023-06-24T11:00:16;34.50;1.00
25933;DHT22;13731;51.166;4.474;2023-06-24T11:02:42;34.70;1.00
25933;DHT22;13731;51.166;4.474;2023-06-24T11:05:09;33.30;1.00
25933;DHT22;13731;51.166;4.474;2023-06-24T11:07:35;33.00;1.00
25933;DHT22;13731;51.166;4.474;2023-06-24T11:10:05;33.30;1.00
25933;DHT22;13731;51.166;4.474;2023-06-24T11:12:35;33.20;1.00
25933;DHT22;13731;51.166;4.474;2023-06-24T11:15:02;33.90;1.00
25933;DHT22;13731;51.166;4.474;2023-06-24T11:17:28;34.50;1.00
25933;DHT22;13731;51.166;4.474;2023-06-24T11:19:55;35.10;1.00
25933;DHT22;13731;51.166;4.474;2023-06-24T11:22:21;35.60;1.00
25933;DHT22;13731;51.166;4.474;2023-06-24T11:24:47;35.10;1.00
25933;DHT22;13731;51.166;4.474;2023-06-24T11:27:13;36.00;1.00
25933;DHT22;13731;51.166;4.474;2023-06-24T11:29:38;37.20;1.00
25933;DHT22;13731;51.166;4.474;2023-06-24T11:32:07;37.10;1.00
25933;DHT22;13731;51.166;4.474;2023-06-24T11:34:32;36.90;1.00
25933;DHT22;13731;51.166;4.474;2023-06-24T11:36:58;38.50;1.00
25933;DHT22;13731;51.166;4.474;2023-06-24T11:39:27;37.30;1.00
25933;DHT22;13731;51.166;4.474;2023-06-24T11:41:53;37.40;1.00
25933;DHT22;13731;51.166;4.474;2023-06-24T11:44:25;38.00;1.00
25933;DHT22;13731;51.166;4.474;2023-06-24T11:46:51;36.80;1.00
25933;DHT22;13731;51.166;4.474;2023-06-24T11:49:18;35.90;1.00
25933;DHT22;13731;51.166;4.474;2023-06-24T11:51:48;34.60;1.00
25933;DHT22;13731;51.166;4.474;2023-06-24T11:54:15;35.00;1.00
25933;DHT22;13731;51.166;4.474;2023-06-24T11:56:41;34.10;1.00
25933;DHT22;13731;51.166;4.474;2023-06-24T11:59:15;33.90;1.00
25933;DHT22;13731;51.166;4.474;2023-06-24T12:01:43;34.20;1.00
25933;DHT22;13731;51.166;4.474;2023-06-24T12:04:09;34.00;1.00
25933;DHT22;13731;51.166;4.474;2023-06-24T12:06:35;35.30;1.00
25933;DHT22;13731;51.166;4.474;2023-06-24T12:09:01;37.10;1.00
25933;DHT22;13731;51.166;4.474;2023-06-24T12:11:26;38.00;1.00
25933;DHT22;13731;51.166;4.474;2023-06-24T12:13:52;37.50;1.00
25933;DHT22;13731;51.166;4.474;2023-06-24T12:16:18;37.30;1.00
25933;DHT22;13731;51.166;4.474;2023-06-24T12:18:44;37.30;1.00
25933;DHT22;13731;51.166;4.474;2023-06-24T12:21:10;37.80;1.00
25933;DHT22;13731;51.166;4.474;2023-06-24T12:23:36;38.10;1.00
25933;DHT22;13731;51.166;4.474;2023-06-24T12:26:01;37.10;1.00
25933;DHT22;13731;51.166;4.474;2023-06-24T12:28:27;37.90;1.00
25933;DHT22;13731;51.166;4.474;2023-06-24T12:30:53;37.70;1.00
25933;DHT22;13731;51.166;4.474;2023-06-24T12:33:19;38.30;1.00
25933;DHT22;13731;51.166;4.474;2023-06-24T12:35:46;39.40;1.00
25933;DHT22;13731;51.166;4.474;2023-06-24T12:38:12;39.40;1.00
25933;DHT22;13731;51.166;4.474;2023-06-24T12:40:37;39.90;1.00
25933;DHT22;13731;51.166;4.474;2023-06-24T12:43:03;39.00;1.00
25933;DHT22;13731;51.166;4.474;2023-06-24T12:45:29;39.20;1.00
25933;DHT22;13731;51.166;4.474;2023-06-24T12:47:55;39.60;1.00
25933;DHT22;13731;51.166;4.474;2023-06-24T12:50:21;40.20;1.00
25933;DHT22;13731;51.166;4.474;2023-06-24T12:52:47;41.20;1.00
25933;DHT22;13731;51.166;4.474;2023-06-24T12:55:13;41.40;1.00
25933;DHT22;13731;51.166;4.474;2023-06-24T12:57:38;41.20;1.00
25933;DHT22;13731;51.166;4.474;2023-06-24T13:00:04;42.10;1.00
25933;DHT22;13731;51.166;4.474;2023-06-24T13:02:30;41.60;1.00
25933;DHT22;13731;51.166;4.474;2023-06-24T13:04:56;41.30;1.00
25933;DHT22;13731;51.166;4.474;2023-06-24T13:07:22;41.60;1.00
25933;DHT22;13731;51.166;4.474;2023-06-24T13:09:48;41.30;1.00
25933;DHT22;13731;51.166;4.474;2023-06-24T13:12:13;42.20;1.00
25933;DHT22;13731;51.166;4.474;2023-06-24T13:14:39;41.70;1.00
25933;DHT22;13731;51.166;4.474;2023-06-24T13:17:05;40.50;1.00
25933;DHT22;13731;51.166;4.474;2023-06-24T13:19:31;40.10;1.00
25933;DHT22;13731;51.166;4.474;2023-06-24T13:21:58;40.60;1.00
25933;DHT22;13731;51.166;4.474;2023-06-24T13:24:24;40.10;1.00
25933;DHT22;13731;51.166;4.474;2023-06-24T13:26:51;40.90;1.00
25933;DHT22;13731;51.166;4.474;2023-06-24T13:29:16;41.50;1.00
25933;DHT22;13731;51.166;4.474;2023-06-24T13:31:42;41.00;1.00
25933;DHT22;13731;51.166;4.474;2023-06-24T13:34:08;41.50;1.00
25933;DHT22;13731;51.166;4.474;2023-06-24T13:36:34;41.90;1.00
25933;DHT22;13731;51.166;4.474;2023-06-24T13:39:04;40.80;1.00
25933;DHT22;13731;51.166;4.474;2023-06-24T13:41:30;39.90;1.00
25933;DHT22;13731;51.166;4.474;2023-06-24T13:43:58;40.20;1.00
25933;DHT22;13731;51.166;4.474;2023-06-24T13:46:24;40.50;1.00
25933;DHT22;13731;51.166;4.474;2023-06-24T13:48:49;40.80;1.00
25933;DHT22;13731;51.166;4.474;2023-06-24T13:51:16;41.60;1.00
25933;DHT22;13731;51.166;4.474;2023-06-24T13:53:41;41.50;1.00
25933;DHT22;13731;51.166;4.474;2023-06-24T13:56:07;41.90;1.00
25933;DHT22;13731;51.166;4.474;2023-06-24T13:58:33;43.30;1.00
25933;DHT22;13731;51.166;4.474;2023-06-24T14:00:58;43.50;1.00
25933;DHT22;13731;51.166;4.474;2023-06-24T14:03:25;43.70;1.00
25933;DHT22;13731;51.166;4.474;2023-06-24T14:05:50;43.00;1.00
25933;DHT22;13731;51.166;4.474;2023-06-24T14:08:16;42.50;1.00
25933;DHT22;13731;51.166;4.474;2023-06-24T14:10:42;42.20;1.00
25933;DHT22;13731;51.166;4.474;2023-06-24T14:13:07;42.20;1.00
25933;DHT22;13731;51.166;4.474;2023-06-24T14:15:33;41.70;1.00
25933;DHT22;13731;51.166;4.474;2023-06-24T14:17:59;41.00;1.00
25933;DHT22;13731;51.166;4.474;2023-06-24T14:20:25;40.20;1.00
25933;DHT22;13731;51.166;4.474;2023-06-24T14:22:50;40.70;1.00
25933;DHT22;13731;51.166;4.474;2023-06-24T14:25:16;41.40;1.00
25933;DHT22;13731;51.166;4.474;2023-06-24T14:27:43;42.20;1.00
25933;DHT22;13731;51.166;4.474;2023-06-24T14:30:10;40.70;1.00
25933;DHT22;13731;51.166;4.474;2023-06-24T14:32:35;40.50;1.00
25933;DHT22;13731;51.166;4.474;2023-06-24T14:35:01;40.80;1.00
25933;DHT22;13731;51.166;4.474;2023-06-24T14:37:27;42.00;1.00
25933;DHT22;13731;51.166;4.474;2023-06-24T14:39:52;42.60;1.00
25933;DHT22;13731;51.166;4.474;2023-06-24T14:42:18;42.20;1.00
25933;DHT22;13731;51.166;4.474;2023-06-24T14:44:44;41.20;1.00
25933;DHT22;13731;51.166;4.474;2023-06-24T14:47:09;40.00;1.00
25933;DHT22;13731;51.166;4.474;2023-06-24T14:49:35;40.60;1.00
25933;DHT22;13731;51.166;4.474;2023-06-24T14:52:01;41.50;1.00
25933;DHT22;13731;51.166;4.474;2023-06-24T14:54:27;41.60;1.00
25933;DHT22;13731;51.166;4.474;2023-06-24T14:56:52;41.20;1.00
25933;DHT22;13731;51.166;4.474;2023-06-24T14:59:18;40.20;1.00
25933;DHT22;13731;51.166;4.474;2023-06-24T15:01:44;38.60;1.00
25933;DHT22;13731;51.166;4.474;2023-06-24T15:04:10;40.20;1.00
25933;DHT22;13731;51.166;4.474;2023-06-24T15:06:35;41.00;1.00
25933;DHT22;13731;51.166;4.474;2023-06-24T15:09:01;41.00;1.00
25933;DHT22;13731;51.166;4.474;2023-06-24T15:11:27;40.50;1.00
25933;DHT22;13731;51.166;4.474;2023-06-24T15:13:52;40.20;1.00
25933;DHT22;13731;51.166;4.474;2023-06-24T15:16:18;40.10;1.00
25933;DHT22;13731;51.166;4.474;2023-06-24T15:18:45;40.00;1.00
25933;DHT22;13731;51.166;4.474;2023-06-24T15:21:11;40.50;1.00
25933;DHT22;13731;51.166;4.474;2023-06-24T15:23:37;39.10;1.00
25933;DHT22;13731;51.166;4.474;2023-06-24T15:26:03;40.40;1.00
25933;DHT22;13731;51.166;4.474;2023-06-24T15:28:28;42.00;1.00
25933;DHT22;13731;51.166;4.474;2023-06-24T15:30:55;41.30;1.00
25933;DHT22;13731;51.166;4.474;2023-06-24T15:33:21;40.30;1.00
25933;DHT22;13731;51.166;4.474;2023-06-24T15:35:47;40.30;1.00
25933;DHT22;13731;51.166;4.474;2023-06-24T15:38:13;41.80;1.00
25933;DHT22;13731;51.166;4.474;2023-06-24T15:40:41;42.90;1.00
25933;DHT22;13731;51.166;4.474;2023-06-24T15:43:08;44.00;1.00
25933;DHT22;13731;51.166;4.474;2023-06-24T15:45:35;43.70;1.00
25933;DHT22;13731;51.166;4.474;2023-06-24T15:48:01;43.90;1.00
25933;DHT22;13731;51.166;4.474;2023-06-24T15:50:27;43.80;1.00